createdAt,value
2018-03-28T00:02:02.142Z,7.60
2018-03-28T00:04:29.618Z,7.60
2018-03-28T00:06:57.087Z,7.70
2018-03-28T00:09:24.560Z,7.60
2018-03-28T00:11:52.024Z,7.60
2018-03-28T00:14:19.487Z,7.60
2018-03-28T00:16:47.724Z,7.70
2018-03-28T00:19:15.188Z,7.70
2018-03-28T00:21:42.665Z,7.70
2018-03-28T00:24:10.132Z,7.80
2018-03-28T00:26:37.578Z,7.80
2018-03-28T00:29:05.051Z,7.70
2018-03-28T00:31:32.522Z,7.60
2018-03-28T00:36:34.767Z,7.60
2018-03-28T00:39:02.253Z,7.50
2018-03-28T00:41:29.714Z,7.50
2018-03-28T00:43:57.236Z,7.40
2018-03-28T00:46:24.690Z,7.50
2018-03-28T00:48:52.172Z,7.60
2018-03-28T00:51:31.532Z,7.60
2018-03-28T00:53:59.767Z,7.80
2018-03-28T00:56:27.231Z,7.70
2018-03-28T00:58:54.699Z,7.60
2018-03-28T01:01:22.159Z,7.60
2018-03-28T01:03:50.410Z,7.60
2018-03-28T01:06:19.697Z,7.60
2018-03-28T01:08:47.168Z,7.60
2018-03-28T01:11:14.630Z,7.50
2018-03-28T01:13:42.094Z,7.50
2018-03-28T01:16:09.562Z,7.50
2018-03-28T01:18:37.039Z,7.50
2018-03-28T01:21:04.500Z,7.50
2018-03-28T01:23:33.484Z,7.50
2018-03-28T01:26:00.947Z,7.50
2018-03-28T01:28:28.411Z,7.50
2018-03-28T01:30:55.869Z,7.60
2018-03-28T01:33:23.330Z,7.70
2018-03-28T01:35:50.915Z,7.70
2018-03-28T01:38:19.153Z,7.70
2018-03-28T01:40:46.611Z,7.80
2018-03-28T01:43:14.303Z,7.80
2018-03-28T01:45:42.529Z,7.80
2018-03-28T01:48:09.991Z,7.80
2018-03-28T01:50:37.467Z,7.80
2018-03-28T01:53:06.435Z,7.90
2018-03-28T01:55:34.009Z,7.90
2018-03-28T01:58:01.463Z,7.90
2018-03-28T02:00:28.987Z,7.90
2018-03-28T02:02:56.444Z,8.00
2018-03-28T02:05:23.934Z,8.00
2018-03-28T02:07:51.499Z,8.00
2018-03-28T02:10:18.977Z,8.00
2018-03-28T02:12:46.440Z,8.10
2018-03-28T02:15:13.918Z,8.10
2018-03-28T02:17:42.155Z,8.10
2018-03-28T02:20:09.622Z,8.10
2018-03-28T02:22:37.846Z,8.10
2018-03-28T02:25:05.315Z,8.10
2018-03-28T02:27:32.770Z,8.20
2018-03-28T02:30:00.249Z,8.20
2018-03-28T02:32:27.703Z,8.20
2018-03-28T02:34:55.172Z,8.20
2018-03-28T02:37:22.628Z,8.20
2018-03-28T02:39:50.108Z,8.20
2018-03-28T02:42:17.567Z,8.20
2018-03-28T02:44:45.031Z,8.20
2018-03-28T02:47:12.495Z,8.20
2018-03-28T02:49:39.964Z,8.10
2018-03-28T02:52:08.196Z,8.20
2018-03-28T02:54:35.668Z,8.20
2018-03-28T02:57:03.135Z,8.20
2018-03-28T02:59:30.600Z,8.20
2018-03-28T03:01:58.065Z,8.20
2018-03-28T03:04:25.532Z,8.20
2018-03-28T03:06:53.768Z,8.20
2018-03-28T03:09:21.239Z,8.20
2018-03-28T03:11:48.703Z,8.20
2018-03-28T03:14:16.168Z,8.20
2018-03-28T03:16:43.626Z,8.20
2018-03-28T03:19:11.099Z,8.30
2018-03-28T03:21:39.327Z,8.40
2018-03-28T03:24:06.803Z,8.40
2018-03-28T03:26:34.263Z,8.50
2018-03-28T03:29:01.739Z,8.60
2018-03-28T03:31:29.199Z,8.70
2018-03-28T03:33:56.671Z,8.80
2018-03-28T03:36:24.895Z,8.70
2018-03-28T03:38:52.358Z,8.70
2018-03-28T03:41:19.873Z,8.70
2018-03-28T03:43:48.159Z,8.70
2018-03-28T03:46:15.615Z,8.70
2018-03-28T03:48:43.087Z,8.70
2018-03-28T03:51:10.605Z,8.70
2018-03-28T03:53:38.028Z,8.80
2018-03-28T03:56:05.487Z,8.80
2018-03-28T03:58:32.955Z,9.00
2018-03-28T04:01:00.431Z,9.00
2018-03-28T04:03:27.891Z,9.10
2018-03-28T04:05:55.364Z,9.10
2018-03-28T04:08:23.591Z,9.20
2018-03-28T04:10:51.067Z,9.20
2018-03-28T04:13:18.531Z,9.20
2018-03-28T04:15:45.998Z,9.30
2018-03-28T04:18:13.474Z,9.20
2018-03-28T04:20:41.706Z,9.30
2018-03-28T04:23:09.168Z,9.30
2018-03-28T04:25:36.640Z,9.30
2018-03-28T04:28:04.089Z,9.30
2018-03-28T04:30:31.586Z,9.30
2018-03-28T04:32:59.807Z,9.30
2018-03-28T04:35:27.275Z,9.30
2018-03-28T04:37:54.727Z,9.40
2018-03-28T04:40:22.235Z,9.40
2018-03-28T04:42:50.458Z,9.20
2018-03-28T04:45:17.948Z,9.20
2018-03-28T04:47:45.399Z,9.20
2018-03-28T04:50:12.863Z,9.20
2018-03-28T04:52:40.323Z,9.20
2018-03-28T04:55:07.795Z,9.20
2018-03-28T04:57:36.015Z,9.20
2018-03-28T05:00:03.484Z,9.20
2018-03-28T05:02:30.930Z,9.20
2018-03-28T05:04:58.394Z,9.10
2018-03-28T05:07:25.903Z,9.00
2018-03-28T05:09:54.122Z,8.90
2018-03-28T05:12:21.579Z,8.90
2018-03-28T05:14:49.048Z,8.90
2018-03-28T05:17:16.545Z,8.90
2018-03-28T05:19:43.951Z,8.80
2018-03-28T05:22:11.423Z,8.80
2018-03-28T05:24:38.870Z,8.80
2018-03-28T05:27:06.328Z,8.70
2018-03-28T05:29:33.798Z,8.60
2018-03-28T05:32:01.255Z,8.50
2018-03-28T05:34:28.725Z,8.40
2018-03-28T05:36:56.179Z,8.40
2018-03-28T05:39:23.648Z,8.30
2018-03-28T05:41:51.112Z,8.40
2018-03-28T05:44:18.591Z,8.40
2018-03-28T05:46:46.034Z,8.40
2018-03-28T05:49:13.482Z,8.40
2018-03-28T05:51:40.944Z,8.40
2018-03-28T05:54:08.395Z,8.50
2018-03-28T05:56:35.854Z,8.50
2018-03-28T05:59:03.312Z,8.50
2018-03-28T06:01:30.776Z,8.50
2018-03-28T06:03:58.994Z,8.60
2018-03-28T06:06:26.887Z,8.60
2018-03-28T06:08:54.343Z,8.60
2018-03-28T06:11:21.801Z,8.60
2018-03-28T06:13:49.263Z,8.70
2018-03-28T06:16:16.739Z,8.60
2018-03-28T06:18:44.201Z,8.60
2018-03-28T06:21:11.668Z,8.60
2018-03-28T06:23:39.127Z,8.70
2018-03-28T06:26:06.590Z,8.70
2018-03-28T06:28:34.068Z,8.90
2018-03-28T06:31:02.308Z,8.90
2018-03-28T06:33:29.754Z,9.00
2018-03-28T06:35:57.232Z,9.00
2018-03-28T06:38:24.693Z,9.00
2018-03-28T06:40:52.175Z,9.10
2018-03-28T06:43:19.627Z,9.20
2018-03-28T06:45:47.095Z,9.40
2018-03-28T06:48:15.323Z,9.50
2018-03-28T06:50:42.797Z,9.50
2018-03-28T06:53:10.248Z,9.40
2018-03-28T06:55:37.713Z,9.60
2018-03-28T06:58:05.167Z,9.50
2018-03-28T07:00:32.654Z,9.50
2018-03-28T07:03:00.896Z,9.50
2018-03-28T07:05:28.351Z,9.40
2018-03-28T07:07:55.813Z,9.40
2018-03-28T07:10:23.268Z,9.30
2018-03-28T07:12:50.762Z,9.40
2018-03-28T07:15:18.995Z,9.30
2018-03-28T07:17:46.446Z,9.30
2018-03-28T07:20:13.913Z,9.30
2018-03-28T07:22:41.463Z,9.30
2018-03-28T07:25:08.993Z,9.30
2018-03-28T07:27:37.226Z,9.40
2018-03-28T07:30:04.692Z,9.40
2018-03-28T07:32:32.148Z,9.40
2018-03-28T07:34:59.656Z,9.40
2018-03-28T07:37:27.115Z,9.50
2018-03-28T07:39:55.587Z,9.40
2018-03-28T07:42:23.047Z,9.40
2018-03-28T07:44:50.602Z,9.40
2018-03-28T07:47:18.843Z,9.30
2018-03-28T07:49:47.076Z,9.30
2018-03-28T07:52:14.711Z,9.30
2018-03-28T07:54:43.003Z,9.40
2018-03-28T07:57:10.466Z,9.30
2018-03-28T07:59:37.943Z,9.50
2018-03-28T08:02:05.412Z,9.50
2018-03-28T08:04:32.858Z,9.50
2018-03-28T08:07:00.389Z,9.50
2018-03-28T08:09:27.928Z,9.50
2018-03-28T08:11:55.414Z,9.50
2018-03-28T08:14:23.674Z,9.60
2018-03-28T08:16:51.906Z,9.70
2018-03-28T08:19:19.368Z,9.70
2018-03-28T08:21:46.927Z,9.70
2018-03-28T08:24:14.391Z,9.80
2018-03-28T08:26:41.861Z,9.80
2018-03-28T08:29:09.324Z,9.80
2018-03-28T08:31:36.807Z,9.80
2018-03-28T08:34:05.082Z,9.80
2018-03-28T08:36:33.377Z,9.70
2018-03-28T08:39:00.860Z,9.70
2018-03-28T08:41:28.310Z,9.70
2018-03-28T08:43:55.774Z,9.70
2018-03-28T08:46:23.239Z,9.60
2018-03-28T08:48:50.696Z,9.60
2018-03-28T08:51:18.206Z,9.60
2018-03-28T08:53:46.421Z,9.70
2018-03-28T08:56:13.891Z,9.60
2018-03-28T08:58:41.395Z,9.70
2018-03-28T09:01:09.627Z,9.90
2018-03-28T09:03:37.134Z,9.80
2018-03-28T09:06:05.371Z,10.00
2018-03-28T09:08:32.832Z,10.00
2018-03-28T09:11:00.311Z,10.00
2018-03-28T09:13:27.792Z,10.00
2018-03-28T09:15:56.075Z,9.90
2018-03-28T09:18:24.299Z,9.90
2018-03-28T09:20:51.782Z,9.90
2018-03-28T09:23:19.240Z,10.00
2018-03-28T09:25:46.724Z,10.00
2018-03-28T09:28:14.994Z,10.20
2018-03-28T09:30:43.239Z,10.20
2018-03-28T09:33:11.461Z,10.20
2018-03-28T09:35:39.011Z,10.20
2018-03-28T09:38:07.296Z,10.40
2018-03-28T09:40:35.562Z,10.40
2018-03-28T09:43:03.787Z,10.40
2018-03-28T09:45:31.303Z,10.40
2018-03-28T09:47:59.583Z,10.40
2018-03-28T09:50:28.070Z,10.40
2018-03-28T09:52:55.518Z,10.40
2018-03-28T09:55:23.755Z,10.40
2018-03-28T09:57:51.220Z,10.40
2018-03-28T10:00:25.791Z,10.50
2018-03-28T10:02:58.948Z,10.50
2018-03-28T10:05:32.875Z,10.60
2018-03-28T10:08:01.139Z,10.60
2018-03-28T10:10:28.605Z,10.60
2018-03-28T10:12:56.899Z,10.70
2018-03-28T10:15:24.366Z,10.70
2018-03-28T10:17:51.843Z,10.90
2018-03-28T10:20:19.306Z,10.90
2018-03-28T10:22:46.839Z,11.00
2018-03-28T10:25:14.376Z,11.20
2018-03-28T10:27:42.662Z,11.30
2018-03-28T10:30:10.935Z,11.30
2018-03-28T10:32:39.219Z,11.30
2018-03-28T10:35:06.761Z,11.30
2018-03-28T10:37:34.236Z,11.40
2018-03-28T10:40:02.461Z,11.40
2018-03-28T10:42:29.927Z,11.40
2018-03-28T10:44:57.398Z,11.50
2018-03-28T10:47:24.869Z,11.50
2018-03-28T10:49:52.326Z,11.50
2018-03-28T10:52:19.798Z,11.50
2018-03-28T10:54:48.007Z,11.60
2018-03-28T10:57:15.476Z,11.60
2018-03-28T10:59:42.939Z,11.70
2018-03-28T11:02:10.407Z,11.60
2018-03-28T11:04:39.636Z,11.70
2018-03-28T11:07:07.109Z,11.70
2018-03-28T11:09:39.604Z,11.90
2018-03-28T11:12:08.463Z,11.90
2018-03-28T11:14:35.923Z,12.10
2018-03-28T11:17:03.403Z,12.30
2018-03-28T11:19:30.858Z,12.50
2018-03-28T11:21:58.328Z,12.70
2018-03-28T11:24:25.783Z,12.80
2018-03-28T11:26:53.248Z,12.90
2018-03-28T11:29:20.696Z,13.20
2018-03-28T11:31:48.271Z,13.40
2018-03-28T11:34:15.720Z,13.50
2018-03-28T11:36:43.271Z,13.40
2018-03-28T11:39:11.490Z,13.30
2018-03-28T11:41:38.957Z,13.30
2018-03-28T11:44:06.452Z,13.40
2018-03-28T11:46:34.687Z,13.50
2018-03-28T11:49:02.161Z,13.50
2018-03-28T11:51:29.643Z,13.60
2018-03-28T11:53:57.863Z,13.70
2018-03-28T11:56:25.328Z,13.70
2018-03-28T11:58:52.830Z,13.70
2018-03-28T12:01:21.067Z,13.70
2018-03-28T12:03:48.519Z,13.60
2018-03-28T12:06:15.995Z,13.60
2018-03-28T12:08:43.556Z,13.60
2018-03-28T12:11:11.065Z,13.50
2018-03-28T12:13:39.279Z,13.10
2018-03-28T12:16:06.731Z,13.10
2018-03-28T12:18:34.194Z,12.90
2018-03-28T12:21:01.636Z,12.80
2018-03-28T12:23:29.104Z,12.70
2018-03-28T12:25:56.550Z,12.60
2018-03-28T12:28:26.816Z,12.50
2018-03-28T12:30:54.271Z,12.40
2018-03-28T12:33:21.731Z,12.40
2018-03-28T12:35:49.191Z,12.30
2018-03-28T12:38:16.656Z,12.30
2018-03-28T12:40:44.115Z,12.00
2018-03-28T12:43:11.580Z,11.90
2018-03-28T12:45:39.863Z,11.60
2018-03-28T12:48:08.095Z,11.40
2018-03-28T12:50:35.726Z,11.40
2018-03-28T12:53:03.164Z,11.40
2018-03-28T12:55:30.586Z,11.20
2018-03-28T12:57:58.052Z,11.20
2018-03-28T13:00:25.515Z,11.10
2018-03-28T13:02:53.001Z,11.00
2018-03-28T13:05:21.267Z,10.90
2018-03-28T13:07:48.699Z,10.80
2018-03-28T13:10:16.171Z,10.70
2018-03-28T13:12:43.632Z,10.60
2018-03-28T13:15:11.858Z,10.50
2018-03-28T13:17:39.327Z,10.60
2018-03-28T13:20:06.796Z,10.50
2018-03-28T13:22:34.268Z,10.60
2018-03-28T13:25:01.721Z,10.60
2018-03-28T13:27:29.191Z,10.60
2018-03-28T13:29:56.667Z,10.70
2018-03-28T13:32:24.913Z,10.70
2018-03-28T13:34:52.366Z,10.70
2018-03-28T13:37:19.842Z,10.70
2018-03-28T13:39:48.802Z,10.70
2018-03-28T13:42:16.265Z,10.80
2018-03-28T13:44:43.743Z,10.90
2018-03-28T13:47:11.211Z,10.80
2018-03-28T13:49:39.801Z,10.70
2018-03-28T13:52:07.272Z,10.60
2018-03-28T13:54:35.491Z,10.60
2018-03-28T13:57:02.967Z,10.60
2018-03-28T13:59:30.426Z,10.50
2018-03-28T14:01:57.905Z,10.50
2018-03-28T14:04:26.876Z,10.50
2018-03-28T14:06:54.348Z,10.50
2018-03-28T14:09:21.802Z,10.50
2018-03-28T14:11:49.271Z,10.50
2018-03-28T14:14:16.753Z,10.50
2018-03-28T14:16:44.978Z,10.30
2018-03-28T14:19:12.440Z,10.30
2018-03-28T14:21:39.961Z,10.20
2018-03-28T14:24:07.362Z,10.10
2018-03-28T14:26:34.848Z,10.20
2018-03-28T14:29:03.070Z,10.30
2018-03-28T14:31:30.564Z,10.20
2018-03-28T14:33:57.995Z,10.20
2018-03-28T14:36:25.456Z,10.30
2018-03-28T14:38:52.932Z,10.20
2018-03-28T14:41:20.400Z,10.20
2018-03-28T14:43:47.870Z,10.20
2018-03-28T14:46:16.102Z,10.20
2018-03-28T14:48:43.583Z,10.20
2018-03-28T14:51:11.051Z,10.10
2018-03-28T14:53:38.527Z,10.10
2018-03-28T14:56:05.974Z,10.10
2018-03-28T14:58:34.210Z,10.10
2018-03-28T15:01:01.667Z,10.10
2018-03-28T15:03:29.191Z,10.20
2018-03-28T15:05:57.415Z,10.20
2018-03-28T15:08:24.907Z,10.20
2018-03-28T15:10:52.437Z,10.20
2018-03-28T15:13:19.980Z,10.20
2018-03-28T15:15:48.176Z,10.10
2018-03-28T15:18:15.650Z,10.10
2018-03-28T15:20:43.110Z,10.00
2018-03-28T15:23:11.415Z,9.90
2018-03-28T15:25:39.645Z,10.00
2018-03-28T15:28:07.111Z,10.00
2018-03-28T15:32:59.351Z,10.10
2018-03-28T15:35:26.811Z,10.10
2018-03-28T15:37:54.285Z,10.10
2018-03-28T15:40:21.744Z,10.20
2018-03-28T15:42:49.210Z,10.20
2018-03-28T15:45:16.684Z,10.30
2018-03-28T15:47:44.203Z,10.30
2018-03-28T15:50:11.708Z,10.20
2018-03-28T15:52:39.950Z,10.10
2018-03-28T15:55:07.411Z,10.10
2018-03-28T15:57:34.889Z,10.20
2018-03-28T16:00:02.356Z,10.20
2018-03-28T16:02:30.587Z,10.20
2018-03-28T16:04:58.076Z,10.10
2018-03-28T16:07:25.535Z,10.10
2018-03-28T16:09:53.008Z,10.20
2018-03-28T16:12:21.254Z,10.30
2018-03-28T16:14:48.710Z,10.30
2018-03-28T16:17:16.172Z,10.20
2018-03-28T16:19:43.647Z,10.30
2018-03-28T16:22:11.998Z,10.40
2018-03-28T16:24:39.490Z,10.40
2018-03-28T16:27:06.943Z,10.50
2018-03-28T16:29:34.403Z,10.50
2018-03-28T16:32:01.892Z,10.50
2018-03-28T16:34:30.107Z,10.60
2018-03-28T16:36:57.614Z,10.50
2018-03-28T16:39:25.848Z,10.50
2018-03-28T16:41:53.311Z,10.50
2018-03-28T16:44:20.784Z,10.50
2018-03-28T16:46:48.640Z,10.40
2018-03-28T16:49:16.091Z,10.50
2018-03-28T16:51:43.555Z,10.50
2018-03-28T16:54:12.080Z,10.60
2018-03-28T16:56:39.534Z,10.60
2018-03-28T16:59:06.994Z,10.60
2018-03-28T17:01:34.488Z,10.60
2018-03-28T17:04:01.939Z,10.60
2018-03-28T17:06:29.407Z,10.60
2018-03-28T17:08:56.872Z,10.60
2018-03-28T17:11:24.344Z,10.60
2018-03-28T17:13:51.960Z,10.50
2018-03-28T17:16:19.419Z,10.50
2018-03-28T17:18:46.875Z,10.50
2018-03-28T17:21:15.379Z,10.50
2018-03-28T17:23:42.843Z,10.50
2018-03-28T17:26:10.314Z,10.50
2018-03-28T17:28:37.772Z,10.60
2018-03-28T17:31:05.244Z,10.80
2018-03-28T17:33:32.707Z,10.80
2018-03-28T17:36:00.188Z,10.80
2018-03-28T17:38:28.419Z,10.80
2018-03-28T17:40:55.944Z,10.70
2018-03-28T17:43:23.347Z,10.60
2018-03-28T17:45:50.891Z,10.50
2018-03-28T17:48:18.391Z,10.60
2018-03-28T17:50:46.639Z,10.70
2018-03-28T17:53:14.115Z,10.60
2018-03-28T17:55:41.628Z,10.70
2018-03-28T17:58:09.079Z,10.70
2018-03-28T18:00:36.598Z,10.60
2018-03-28T18:03:04.841Z,10.40
2018-03-28T18:05:32.312Z,10.40
2018-03-28T18:07:59.791Z,10.40
2018-03-28T18:10:28.051Z,10.60
2018-03-28T18:12:55.543Z,10.60
2018-03-28T18:15:23.759Z,10.70
2018-03-28T18:17:51.228Z,10.70
2018-03-28T18:20:18.691Z,10.60
2018-03-28T18:22:46.235Z,10.70
2018-03-28T18:25:13.697Z,10.50
2018-03-28T18:27:42.241Z,10.60
2018-03-28T18:30:10.464Z,10.60
2018-03-28T18:32:37.934Z,10.60
2018-03-28T18:35:05.491Z,10.60
2018-03-28T18:37:33.044Z,10.70
2018-03-28T18:40:00.504Z,10.70
2018-03-28T18:42:27.967Z,10.70
2018-03-28T18:44:56.491Z,10.60
2018-03-28T18:47:24.732Z,10.70
2018-03-28T18:49:52.209Z,10.70
2018-03-28T18:52:20.471Z,10.60
2018-03-28T18:54:47.937Z,10.60
2018-03-28T18:57:15.403Z,10.50
2018-03-28T18:59:43.638Z,10.60
2018-03-28T19:02:11.117Z,10.60
2018-03-28T19:04:38.579Z,10.70
2018-03-28T19:07:06.127Z,10.80
2018-03-28T19:09:33.601Z,10.80
2018-03-28T19:12:01.075Z,10.70
2018-03-28T19:14:29.368Z,10.80
2018-03-28T19:16:56.834Z,10.70
2018-03-28T19:19:25.102Z,10.70
2018-03-28T19:21:52.566Z,10.70
2018-03-28T19:24:20.040Z,10.70
2018-03-28T19:26:47.502Z,10.60
2018-03-28T19:29:15.018Z,10.60
2018-03-28T19:31:43.337Z,10.50
2018-03-28T19:34:10.805Z,10.50
2018-03-28T19:36:38.332Z,10.40
2018-03-28T19:39:06.604Z,10.30
2018-03-28T19:41:34.886Z,10.30
2018-03-28T19:44:03.212Z,10.20
2018-03-28T19:46:30.683Z,10.20
2018-03-28T19:48:58.148Z,10.20
2018-03-28T19:51:25.859Z,10.00
2018-03-28T19:53:53.346Z,10.00
2018-03-28T19:56:20.791Z,10.00
2018-03-28T19:58:48.263Z,10.00
2018-03-28T20:01:15.733Z,10.00
2018-03-28T20:03:43.235Z,10.00
2018-03-28T20:08:45.353Z,9.90
2018-03-28T20:11:12.807Z,9.80
2018-03-28T20:13:40.279Z,9.80
2018-03-28T20:16:07.783Z,9.80
2018-03-28T20:18:36.008Z,9.80
2018-03-28T20:21:03.471Z,9.80
2018-03-28T20:23:30.979Z,9.80
2018-03-28T20:25:59.232Z,10.00
2018-03-28T20:28:26.695Z,9.90
2018-03-28T20:30:54.167Z,10.00
2018-03-28T20:33:22.391Z,10.00
2018-03-28T20:35:49.909Z,10.00
2018-03-28T20:38:18.127Z,9.90
2018-03-28T20:40:45.656Z,9.90
2018-03-28T20:43:13.871Z,9.80
2018-03-28T20:45:41.335Z,9.80
2018-03-28T20:48:08.787Z,9.80
2018-03-28T20:50:36.259Z,9.60
2018-03-28T20:53:03.707Z,9.50
2018-03-28T20:55:31.204Z,9.40
2018-03-28T20:57:59.499Z,9.30
2018-03-28T21:00:27.730Z,9.20
2018-03-28T21:02:55.178Z,9.10
2018-03-28T21:05:22.642Z,9.10
2018-03-28T21:07:50.172Z,8.90
2018-03-28T21:10:18.390Z,8.90
2018-03-28T21:12:45.849Z,8.90
2018-03-28T21:15:14.122Z,8.80
2018-03-28T21:17:41.567Z,8.80
2018-03-28T21:20:09.091Z,8.70
2018-03-28T21:22:36.546Z,8.70
2018-03-28T21:25:04.771Z,8.70
2018-03-28T21:27:32.223Z,8.70
2018-03-28T21:29:59.711Z,8.70
2018-03-28T21:32:27.158Z,8.70
2018-03-28T21:34:54.622Z,8.70
2018-03-28T21:37:23.223Z,8.70
2018-03-28T21:39:51.465Z,8.60
2018-03-28T21:42:18.936Z,8.60
2018-03-28T21:44:46.402Z,8.50
2018-03-28T21:47:13.871Z,8.50
2018-03-28T21:49:42.099Z,8.50
2018-03-28T21:52:09.563Z,8.40
2018-03-28T21:54:37.064Z,8.40
2018-03-28T21:57:05.363Z,8.30
2018-03-28T21:59:32.807Z,8.30
2018-03-28T22:02:01.041Z,8.30
2018-03-28T22:04:28.544Z,8.30
2018-03-28T22:06:56.871Z,8.40
2018-03-28T22:09:24.339Z,8.40
2018-03-28T22:11:51.811Z,8.40
2018-03-28T22:14:19.270Z,8.30
2018-03-28T22:16:47.590Z,8.20
2018-03-28T22:19:15.788Z,8.20
2018-03-28T22:21:43.250Z,8.10
2018-03-28T22:24:10.714Z,8.10
2018-03-28T22:26:38.154Z,8.10
2018-03-28T22:29:05.627Z,8.10
2018-03-28T22:31:33.075Z,8.10
2018-03-28T22:34:00.556Z,8.10
2018-03-28T22:36:28.039Z,8.00
2018-03-28T22:38:55.508Z,8.00
2018-03-28T22:41:23.729Z,8.00
2018-03-28T22:43:51.194Z,8.00
2018-03-28T22:46:18.674Z,8.10
2018-03-28T22:48:46.106Z,8.00
2018-03-28T22:51:13.563Z,8.00
2018-03-28T22:53:41.031Z,7.90
2018-03-28T22:56:08.487Z,7.90
2018-03-28T22:58:36.052Z,7.80
2018-03-28T23:01:03.500Z,7.80
2018-03-28T23:03:30.969Z,7.70
2018-03-28T23:05:58.418Z,7.80
2018-03-28T23:08:25.889Z,7.70
2018-03-28T23:10:53.339Z,7.70
2018-03-28T23:13:20.787Z,7.70
2018-03-28T23:15:48.256Z,7.70
2018-03-28T23:18:15.726Z,7.70
2018-03-28T23:20:43.183Z,7.70
2018-03-28T23:23:10.646Z,7.80
2018-03-28T23:28:13.055Z,7.80
2018-03-28T23:30:40.519Z,7.70
2018-03-28T23:33:08.736Z,7.70
2018-03-28T23:35:36.195Z,7.70
2018-03-28T23:38:03.648Z,7.70
2018-03-28T23:40:31.111Z,7.70
2018-03-28T23:42:58.687Z,7.60
2018-03-28T23:45:26.146Z,7.60
2018-03-28T23:47:53.609Z,7.70
2018-03-28T23:50:21.059Z,7.60
2018-03-28T23:52:48.516Z,7.60
2018-03-28T23:55:15.974Z,7.60
2018-03-28T23:57:43.431Z,7.60
